sensor_id;sensor_type;location;lat;lon;timestamp;temperature;humidity
2030;DHT22;1020;48.854;8.830;2022-08-24T00:00:22;18.80;99.90
2030;DHT22;1020;48.854;8.830;2022-08-24T00:02:50;18.80;99.90
2030;DHT22;1020;48.854;8.830;2022-08-24T00:05:18;18.70;99.90
2030;DHT22;1020;48.854;8.830;2022-08-24T00:07:47;18.60;99.90
2030;DHT22;1020;48.854;8.830;2022-08-24T00:10:14;18.60;99.90
2030;DHT22;1020;48.854;8.830;2022-08-24T00:12:41;18.50;99.90
2030;DHT22;1020;48.854;8.830;2022-08-24T00:15:10;18.40;99.90
2030;DHT22;1020;48.854;8.830;2022-08-24T00:17:37;18.40;99.90
2030;DHT22;1020;48.854;8.830;2022-08-24T00:20:08;18.40;99.90
2030;DHT22;1020;48.854;8.830;2022-08-24T00:22:35;18.40;99.90
2030;DHT22;1020;48.854;8.830;2022-08-24T00:25:04;18.30;99.90
2030;DHT22;1020;48.854;8.830;2022-08-24T00:27:31;18.30;99.90
2030;DHT22;1020;48.854;8.830;2022-08-24T00:29:58;18.20;99.90
2030;DHT22;1020;48.854;8.830;2022-08-24T00:32:25;18.20;99.90
2030;DHT22;1020;48.854;8.830;2022-08-24T00:34:54;18.20;99.90
2030;DHT22;1020;48.854;8.830;2022-08-24T00:37:22;18.20;99.90
2030;DHT22;1020;48.854;8.830;2022-08-24T00:39:49;18.20;99.90
2030;DHT22;1020;48.854;8.830;2022-08-24T00:42:16;18.20;99.90
2030;DHT22;1020;48.854;8.830;2022-08-24T00:44:43;18.20;99.90
2030;DHT22;1020;48.854;8.830;2022-08-24T00:47:14;18.20;99.90
2030;DHT22;1020;48.854;8.830;2022-08-24T00:49:46;18.30;99.90
2030;DHT22;1020;48.854;8.830;2022-08-24T00:52:18;18.30;99.90
2030;DHT22;1020;48.854;8.830;2022-08-24T00:54:50;18.30;99.90
2030;DHT22;1020;48.854;8.830;2022-08-24T00:57:20;18.30;99.90
2030;DHT22;1020;48.854;8.830;2022-08-24T00:59:53;18.20;99.90
2030;DHT22;1020;48.854;8.830;2022-08-24T01:02:26;18.20;99.90
2030;DHT22;1020;48.854;8.830;2022-08-24T01:04:58;18.20;99.90
2030;DHT22;1020;48.854;8.830;2022-08-24T01:07:28;18.20;99.90
2030;DHT22;1020;48.854;8.830;2022-08-24T01:09:59;18.30;99.90
2030;DHT22;1020;48.854;8.830;2022-08-24T01:12:27;18.30;99.90
2030;DHT22;1020;48.854;8.830;2022-08-24T01:14:57;18.20;99.90
2030;DHT22;1020;48.854;8.830;2022-08-24T01:17:24;18.30;99.90
2030;DHT22;1020;48.854;8.830;2022-08-24T01:20:11;18.30;99.90
2030;DHT22;1020;48.854;8.830;2022-08-24T01:22:48;18.20;99.90
2030;DHT22;1020;48.854;8.830;2022-08-24T01:25:19;18.30;99.90
2030;DHT22;1020;48.854;8.830;2022-08-24T01:27:47;18.40;99.90
2030;DHT22;1020;48.854;8.830;2022-08-24T01:30:16;18.50;99.90
2030;DHT22;1020;48.854;8.830;2022-08-24T01:32:52;18.50;99.90
2030;DHT22;1020;48.854;8.830;2022-08-24T01:35:19;18.50;99.90
2030;DHT22;1020;48.854;8.830;2022-08-24T01:37:46;18.50;99.90
2030;DHT22;1020;48.854;8.830;2022-08-24T01:40:13;18.50;99.90
2030;DHT22;1020;48.854;8.830;2022-08-24T01:42:46;18.50;99.90
2030;DHT22;1020;48.854;8.830;2022-08-24T01:45:13;18.50;99.90
2030;DHT22;1020;48.854;8.830;2022-08-24T01:47:40;18.50;99.90
2030;DHT22;1020;48.854;8.830;2022-08-24T01:50:07;18.40;99.90
2030;DHT22;1020;48.854;8.830;2022-08-24T01:52:34;18.40;99.90
2030;DHT22;1020;48.854;8.830;2022-08-24T01:55:04;18.30;99.90
2030;DHT22;1020;48.854;8.830;2022-08-24T01:57:31;18.20;99.90
2030;DHT22;1020;48.854;8.830;2022-08-24T01:59:59;18.10;99.90
2030;DHT22;1020;48.854;8.830;2022-08-24T02:02:29;18.00;99.90
2030;DHT22;1020;48.854;8.830;2022-08-24T02:04:56;18.00;99.90
2030;DHT22;1020;48.854;8.830;2022-08-24T02:07:24;17.90;99.90
2030;DHT22;1020;48.854;8.830;2022-08-24T02:09:51;17.90;99.90
2030;DHT22;1020;48.854;8.830;2022-08-24T02:12:19;17.90;99.90
2030;DHT22;1020;48.854;8.830;2022-08-24T02:14:46;17.90;99.90
2030;DHT22;1020;48.854;8.830;2022-08-24T02:17:14;17.90;99.90
2030;DHT22;1020;48.854;8.830;2022-08-24T02:19:41;17.90;99.90
2030;DHT22;1020;48.854;8.830;2022-08-24T02:22:08;17.80;99.90
2030;DHT22;1020;48.854;8.830;2022-08-24T02:24:35;17.80;99.90
2030;DHT22;1020;48.854;8.830;2022-08-24T02:27:02;17.70;99.90
2030;DHT22;1020;48.854;8.830;2022-08-24T02:29:30;17.70;99.90
2030;DHT22;1020;48.854;8.830;2022-08-24T02:31:56;17.70;99.90
2030;DHT22;1020;48.854;8.830;2022-08-24T02:34:25;17.70;99.90
2030;DHT22;1020;48.854;8.830;2022-08-24T02:36:51;17.60;99.90
2030;DHT22;1020;48.854;8.830;2022-08-24T02:39:19;17.60;99.90
2030;DHT22;1020;48.854;8.830;2022-08-24T02:41:45;17.50;99.90
2030;DHT22;1020;48.854;8.830;2022-08-24T02:44:12;17.50;99.90
2030;DHT22;1020;48.854;8.830;2022-08-24T02:46:40;17.40;99.90
2030;DHT22;1020;48.854;8.830;2022-08-24T02:49:07;17.50;99.90
2030;DHT22;1020;48.854;8.830;2022-08-24T02:51:36;17.40;99.90
2030;DHT22;1020;48.854;8.830;2022-08-24T02:54:04;17.30;99.90
2030;DHT22;1020;48.854;8.830;2022-08-24T02:56:31;17.30;99.90
2030;DHT22;1020;48.854;8.830;2022-08-24T02:58:58;17.30;99.90
2030;DHT22;1020;48.854;8.830;2022-08-24T03:01:26;17.30;99.90
2030;DHT22;1020;48.854;8.830;2022-08-24T03:03:53;17.20;99.90
2030;DHT22;1020;48.854;8.830;2022-08-24T03:06:21;17.10;99.90
2030;DHT22;1020;48.854;8.830;2022-08-24T03:08:49;17.00;99.90
2030;DHT22;1020;48.854;8.830;2022-08-24T03:11:16;16.90;99.90
2030;DHT22;1020;48.854;8.830;2022-08-24T03:13:42;16.90;99.90
2030;DHT22;1020;48.854;8.830;2022-08-24T03:16:09;16.80;99.90
2030;DHT22;1020;48.854;8.830;2022-08-24T03:18:36;16.80;99.90
2030;DHT22;1020;48.854;8.830;2022-08-24T03:21:03;16.70;99.90
2030;DHT22;1020;48.854;8.830;2022-08-24T03:23:29;16.70;99.90
2030;DHT22;1020;48.854;8.830;2022-08-24T03:25:58;16.70;1.00
2030;DHT22;1020;48.854;8.830;2022-08-24T03:28:26;16.70;1.00
2030;DHT22;1020;48.854;8.830;2022-08-24T03:30:53;16.70;1.00
2030;DHT22;1020;48.854;8.830;2022-08-24T03:33:20;16.70;1.00
2030;DHT22;1020;48.854;8.830;2022-08-24T03:35:46;16.60;1.00
2030;DHT22;1020;48.854;8.830;2022-08-24T03:38:14;16.60;1.00
2030;DHT22;1020;48.854;8.830;2022-08-24T03:40:40;16.60;1.00
2030;DHT22;1020;48.854;8.830;2022-08-24T03:43:09;16.60;1.00
2030;DHT22;1020;48.854;8.830;2022-08-24T03:45:57;16.60;1.00
2030;DHT22;1020;48.854;8.830;2022-08-24T03:48:26;16.50;1.00
2030;DHT22;1020;48.854;8.830;2022-08-24T03:50:53;16.40;1.00
2030;DHT22;1020;48.854;8.830;2022-08-24T03:53:20;16.30;1.00
2030;DHT22;1020;48.854;8.830;2022-08-24T03:55:47;16.30;1.00
2030;DHT22;1020;48.854;8.830;2022-08-24T03:58:15;16.30;1.00
2030;DHT22;1020;48.854;8.830;2022-08-24T04:00:42;16.20;1.00
2030;DHT22;1020;48.854;8.830;2022-08-24T04:03:09;16.20;1.00
2030;DHT22;1020;48.854;8.830;2022-08-24T04:05:37;16.20;1.00
2030;DHT22;1020;48.854;8.830;2022-08-24T04:08:05;16.10;1.00
2030;DHT22;1020;48.854;8.830;2022-08-24T04:10:32;16.00;1.00
2030;DHT22;1020;48.854;8.830;2022-08-24T04:12:59;16.00;1.00
2030;DHT22;1020;48.854;8.830;2022-08-24T04:15:28;15.90;1.00
2030;DHT22;1020;48.854;8.830;2022-08-24T04:17:56;15.90;1.00
2030;DHT22;1020;48.854;8.830;2022-08-24T04:20:23;15.90;1.00
2030;DHT22;1020;48.854;8.830;2022-08-24T04:22:50;15.80;1.00
2030;DHT22;1020;48.854;8.830;2022-08-24T04:25:17;15.90;1.00
2030;DHT22;1020;48.854;8.830;2022-08-24T04:27:43;15.80;1.00
2030;DHT22;1020;48.854;8.830;2022-08-24T04:30:12;15.80;1.00
2030;DHT22;1020;48.854;8.830;2022-08-24T04:32:40;15.80;1.00
2030;DHT22;1020;48.854;8.830;2022-08-24T04:35:07;15.80;1.00
2030;DHT22;1020;48.854;8.830;2022-08-24T04:37:35;15.70;1.00
2030;DHT22;1020;48.854;8.830;2022-08-24T04:40:03;15.70;1.00
2030;DHT22;1020;48.854;8.830;2022-08-24T04:42:30;15.60;7.60
2030;DHT22;1020;48.854;8.830;2022-08-24T04:44:57;15.60;23.10
2030;DHT22;1020;48.854;8.830;2022-08-24T04:47:24;15.60;29.70
2030;DHT22;1020;48.854;8.830;2022-08-24T04:49:52;15.60;19.90
2030;DHT22;1020;48.854;8.830;2022-08-24T04:52:19;15.60;27.50
2030;DHT22;1020;48.854;8.830;2022-08-24T04:54:46;15.70;28.70
2030;DHT22;1020;48.854;8.830;2022-08-24T04:57:13;15.70;21.30
2030;DHT22;1020;48.854;8.830;2022-08-24T04:59:39;15.70;2.80
2030;DHT22;1020;48.854;8.830;2022-08-24T05:02:08;15.60;81.50
2030;DHT22;1020;48.854;8.830;2022-08-24T05:04:35;15.60;99.90
2030;DHT22;1020;48.854;8.830;2022-08-24T05:07:04;15.60;75.90
2030;DHT22;1020;48.854;8.830;2022-08-24T05:09:31;15.60;73.00
2030;DHT22;1020;48.854;8.830;2022-08-24T05:11:58;15.60;91.40
2030;DHT22;1020;48.854;8.830;2022-08-24T05:14:26;15.60;93.80
2030;DHT22;1020;48.854;8.830;2022-08-24T05:16:53;15.60;99.90
2030;DHT22;1020;48.854;8.830;2022-08-24T05:19:20;15.70;99.90
2030;DHT22;1020;48.854;8.830;2022-08-24T05:21:47;15.70;91.60
2030;DHT22;1020;48.854;8.830;2022-08-24T05:24:15;15.70;37.30
2030;DHT22;1020;48.854;8.830;2022-08-24T05:26:42;15.70;69.20
2030;DHT22;1020;48.854;8.830;2022-08-24T05:29:10;15.80;26.50
2030;DHT22;1020;48.854;8.830;2022-08-24T05:31:37;15.90;5.30
2030;DHT22;1020;48.854;8.830;2022-08-24T05:34:04;15.90;1.00
2030;DHT22;1020;48.854;8.830;2022-08-24T05:36:33;16.00;1.00
2030;DHT22;1020;48.854;8.830;2022-08-24T05:39:05;16.10;1.00
2030;DHT22;1020;48.854;8.830;2022-08-24T05:41:33;16.20;1.00
2030;DHT22;1020;48.854;8.830;2022-08-24T05:44:00;16.30;1.00
2030;DHT22;1020;48.854;8.830;2022-08-24T05:46:27;16.40;1.00
2030;DHT22;1020;48.854;8.830;2022-08-24T05:48:56;16.50;1.00
2030;DHT22;1020;48.854;8.830;2022-08-24T05:51:24;16.60;1.00
2030;DHT22;1020;48.854;8.830;2022-08-24T05:53:51;16.70;1.00
2030;DHT22;1020;48.854;8.830;2022-08-24T05:56:18;16.80;1.00
2030;DHT22;1020;48.854;8.830;2022-08-24T05:58:47;16.90;1.00
2030;DHT22;1020;48.854;8.830;2022-08-24T06:01:17;17.00;1.00
2030;DHT22;1020;48.854;8.830;2022-08-24T06:03:46;17.10;1.00
2030;DHT22;1020;48.854;8.830;2022-08-24T06:06:13;17.20;1.00
2030;DHT22;1020;48.854;8.830;2022-08-24T06:08:42;17.30;1.00
2030;DHT22;1020;48.854;8.830;2022-08-24T06:11:10;17.40;1.00
2030;DHT22;1020;48.854;8.830;2022-08-24T06:13:37;17.50;1.00
2030;DHT22;1020;48.854;8.830;2022-08-24T06:16:07;17.60;1.00
2030;DHT22;1020;48.854;8.830;2022-08-24T06:18:37;17.80;1.00
2030;DHT22;1020;48.854;8.830;2022-08-24T06:21:05;17.90;1.00
2030;DHT22;1020;48.854;8.830;2022-08-24T06:23:33;18.10;1.00
2030;DHT22;1020;48.854;8.830;2022-08-24T06:26:01;18.30;1.00
2030;DHT22;1020;48.854;8.830;2022-08-24T06:28:45;18.50;1.00
2030;DHT22;1020;48.854;8.830;2022-08-24T06:31:14;18.70;1.00
2030;DHT22;1020;48.854;8.830;2022-08-24T06:33:41;18.80;1.00
2030;DHT22;1020;48.854;8.830;2022-08-24T06:36:08;19.00;1.00
2030;DHT22;1020;48.854;8.830;2022-08-24T06:38:35;19.10;1.00
2030;DHT22;1020;48.854;8.830;2022-08-24T06:41:02;19.30;1.00
2030;DHT22;1020;48.854;8.830;2022-08-24T06:43:28;19.40;1.00
2030;DHT22;1020;48.854;8.830;2022-08-24T06:45:56;19.60;99.90
2030;DHT22;1020;48.854;8.830;2022-08-24T06:48:25;19.90;99.90
2030;DHT22;1020;48.854;8.830;2022-08-24T06:50:52;20.10;99.90
2030;DHT22;1020;48.854;8.830;2022-08-24T06:53:19;20.40;99.90
2030;DHT22;1020;48.854;8.830;2022-08-24T06:55:48;20.60;99.90
2030;DHT22;1020;48.854;8.830;2022-08-24T06:58:16;21.00;99.90
2030;DHT22;1020;48.854;8.830;2022-08-24T07:00:43;21.30;99.90
2030;DHT22;1020;48.854;8.830;2022-08-24T07:03:09;21.50;99.90
2030;DHT22;1020;48.854;8.830;2022-08-24T07:05:38;21.70;99.90
2030;DHT22;1020;48.854;8.830;2022-08-24T07:08:05;21.90;99.90
2030;DHT22;1020;48.854;8.830;2022-08-24T07:10:33;22.20;99.90
2030;DHT22;1020;48.854;8.830;2022-08-24T07:13:00;22.30;99.90
2030;DHT22;1020;48.854;8.830;2022-08-24T07:15:28;22.40;99.90
2030;DHT22;1020;48.854;8.830;2022-08-24T07:17:54;22.60;99.90
2030;DHT22;1020;48.854;8.830;2022-08-24T07:20:22;22.70;99.90
2030;DHT22;1020;48.854;8.830;2022-08-24T07:22:50;22.90;99.90
2030;DHT22;1020;48.854;8.830;2022-08-24T07:25:17;23.20;99.90
2030;DHT22;1020;48.854;8.830;2022-08-24T07:27:44;23.60;99.90
2030;DHT22;1020;48.854;8.830;2022-08-24T07:30:12;24.20;99.90
2030;DHT22;1020;48.854;8.830;2022-08-24T07:32:40;24.60;99.90
2030;DHT22;1020;48.854;8.830;2022-08-24T07:35:07;25.40;99.90
2030;DHT22;1020;48.854;8.830;2022-08-24T07:37:34;26.50;99.90
2030;DHT22;1020;48.854;8.830;2022-08-24T07:40:04;27.20;99.90
2030;DHT22;1020;48.854;8.830;2022-08-24T07:42:30;28.00;99.90
2030;DHT22;1020;48.854;8.830;2022-08-24T07:44:57;29.30;99.90
2030;DHT22;1020;48.854;8.830;2022-08-24T07:47:24;30.40;99.90
2030;DHT22;1020;48.854;8.830;2022-08-24T07:49:50;30.50;99.90
2030;DHT22;1020;48.854;8.830;2022-08-24T07:52:17;30.90;99.90
2030;DHT22;1020;48.854;8.830;2022-08-24T07:54:44;31.50;99.90
2030;DHT22;1020;48.854;8.830;2022-08-24T07:57:12;32.50;99.90
2030;DHT22;1020;48.854;8.830;2022-08-24T07:59:39;33.80;99.90
2030;DHT22;1020;48.854;8.830;2022-08-24T08:02:07;33.30;99.90
2030;DHT22;1020;48.854;8.830;2022-08-24T08:04:35;32.80;99.90
2030;DHT22;1020;48.854;8.830;2022-08-24T08:07:02;33.50;99.90
2030;DHT22;1020;48.854;8.830;2022-08-24T08:09:30;34.50;99.90
2030;DHT22;1020;48.854;8.830;2022-08-24T08:11:57;35.10;99.90
2030;DHT22;1020;48.854;8.830;2022-08-24T08:14:25;34.30;99.90
2030;DHT22;1020;48.854;8.830;2022-08-24T08:16:52;34.30;99.90
2030;DHT22;1020;48.854;8.830;2022-08-24T08:19:19;34.40;99.90
2030;DHT22;1020;48.854;8.830;2022-08-24T08:21:48;34.70;99.90
2030;DHT22;1020;48.854;8.830;2022-08-24T08:24:33;35.00;99.90
2030;DHT22;1020;48.854;8.830;2022-08-24T08:27:00;34.10;99.90
2030;DHT22;1020;48.854;8.830;2022-08-24T08:29:30;34.30;99.90
2030;DHT22;1020;48.854;8.830;2022-08-24T08:31:58;34.30;99.90
2030;DHT22;1020;48.854;8.830;2022-08-24T08:34:25;34.30;99.90
2030;DHT22;1020;48.854;8.830;2022-08-24T08:36:52;34.50;99.90
2030;DHT22;1020;48.854;8.830;2022-08-24T08:39:20;34.30;99.90
2030;DHT22;1020;48.854;8.830;2022-08-24T08:42:22;33.40;99.90
2030;DHT22;1020;48.854;8.830;2022-08-24T08:45:20;33.30;99.90
2030;DHT22;1020;48.854;8.830;2022-08-24T08:48:09;34.00;99.90
2030;DHT22;1020;48.854;8.830;2022-08-24T08:53:51;34.40;99.90
2030;DHT22;1020;48.854;8.830;2022-08-24T08:56:31;33.10;99.90
2030;DHT22;1020;48.854;8.830;2022-08-24T08:59:06;33.00;99.90
2030;DHT22;1020;48.854;8.830;2022-08-24T09:01:43;33.60;99.90
2030;DHT22;1020;48.854;8.830;2022-08-24T09:04:49;33.70;99.90
2030;DHT22;1020;48.854;8.830;2022-08-24T09:07:30;34.60;99.90
2030;DHT22;1020;48.854;8.830;2022-08-24T09:13:00;35.20;99.90
2030;DHT22;1020;48.854;8.830;2022-08-24T09:16:04;35.50;99.90
2030;DHT22;1020;48.854;8.830;2022-08-24T09:18:56;36.10;99.90
2030;DHT22;1020;48.854;8.830;2022-08-24T09:21:40;36.30;99.90
2030;DHT22;1020;48.854;8.830;2022-08-24T09:24:29;36.10;99.90
2030;DHT22;1020;48.854;8.830;2022-08-24T09:27:09;35.90;99.90
2030;DHT22;1020;48.854;8.830;2022-08-24T09:29:52;35.50;99.90
2030;DHT22;1020;48.854;8.830;2022-08-24T09:32:36;35.60;99.90
2030;DHT22;1020;48.854;8.830;2022-08-24T09:35:07;35.50;99.90
2030;DHT22;1020;48.854;8.830;2022-08-24T09:37:51;36.00;99.90
2030;DHT22;1020;48.854;8.830;2022-08-24T09:40:35;36.90;99.90
2030;DHT22;1020;48.854;8.830;2022-08-24T09:43:35;36.80;99.90
2030;DHT22;1020;48.854;8.830;2022-08-24T09:46:30;36.20;99.90
2030;DHT22;1020;48.854;8.830;2022-08-24T09:49:36;36.00;99.90
2030;DHT22;1020;48.854;8.830;2022-08-24T09:52:29;36.00;99.90
2030;DHT22;1020;48.854;8.830;2022-08-24T09:58:12;37.10;99.90
2030;DHT22;1020;48.854;8.830;2022-08-24T10:00:45;37.10;99.90
2030;DHT22;1020;48.854;8.830;2022-08-24T10:03:27;36.90;99.90
2030;DHT22;1020;48.854;8.830;2022-08-24T10:06:15;37.60;99.90
2030;DHT22;1020;48.854;8.830;2022-08-24T10:09:06;38.10;99.90
2030;DHT22;1020;48.854;8.830;2022-08-24T10:11:44;37.50;99.90
2030;DHT22;1020;48.854;8.830;2022-08-24T10:14:22;37.10;99.90
2030;DHT22;1020;48.854;8.830;2022-08-24T10:17:01;37.60;99.90
2030;DHT22;1020;48.854;8.830;2022-08-24T10:19:47;38.40;99.90
2030;DHT22;1020;48.854;8.830;2022-08-24T10:22:26;38.20;99.90
2030;DHT22;1020;48.854;8.830;2022-08-24T10:25:10;38.50;99.90
2030;DHT22;1020;48.854;8.830;2022-08-24T10:27:49;38.20;99.90
2030;DHT22;1020;48.854;8.830;2022-08-24T10:33:22;36.40;99.90
2030;DHT22;1020;48.854;8.830;2022-08-24T10:36:26;37.50;99.90
2030;DHT22;1020;48.854;8.830;2022-08-24T10:39:10;37.90;99.90
2030;DHT22;1020;48.854;8.830;2022-08-24T10:42:39;38.20;99.90
2030;DHT22;1020;48.854;8.830;2022-08-24T10:48:58;38.00;99.90
2030;DHT22;1020;48.854;8.830;2022-08-24T10:51:33;37.80;99.90
2030;DHT22;1020;48.854;8.830;2022-08-24T10:54:05;37.80;99.90
2030;DHT22;1020;48.854;8.830;2022-08-24T10:56:40;37.10;99.90
2030;DHT22;1020;48.854;8.830;2022-08-24T10:59:17;36.70;99.90
2030;DHT22;1020;48.854;8.830;2022-08-24T11:02:03;36.20;99.90
2030;DHT22;1020;48.854;8.830;2022-08-24T11:04:32;35.80;99.90
2030;DHT22;1020;48.854;8.830;2022-08-24T11:07:17;36.20;99.90
2030;DHT22;1020;48.854;8.830;2022-08-24T11:09:47;37.50;99.90
2030;DHT22;1020;48.854;8.830;2022-08-24T11:12:21;36.90;99.90
2030;DHT22;1020;48.854;8.830;2022-08-24T11:14:50;38.30;99.90
2030;DHT22;1020;48.854;8.830;2022-08-24T11:17:20;38.10;99.90
2030;DHT22;1020;48.854;8.830;2022-08-24T11:19:47;38.00;99.90
2030;DHT22;1020;48.854;8.830;2022-08-24T11:22:28;37.20;99.90
2030;DHT22;1020;48.854;8.830;2022-08-24T11:24:58;37.70;99.90
2030;DHT22;1020;48.854;8.830;2022-08-24T11:27:30;38.30;99.90
2030;DHT22;1020;48.854;8.830;2022-08-24T11:30:10;38.00;99.90
2030;DHT22;1020;48.854;8.830;2022-08-24T11:32:40;37.60;99.90
2030;DHT22;1020;48.854;8.830;2022-08-24T11:35:16;37.60;99.90
2030;DHT22;1020;48.854;8.830;2022-08-24T11:37:43;37.90;99.90
2030;DHT22;1020;48.854;8.830;2022-08-24T11:40:11;38.20;99.90
2030;DHT22;1020;48.854;8.830;2022-08-24T11:42:52;37.60;99.90
2030;DHT22;1020;48.854;8.830;2022-08-24T11:45:28;37.80;99.90
2030;DHT22;1020;48.854;8.830;2022-08-24T11:48:03;37.60;99.90
2030;DHT22;1020;48.854;8.830;2022-08-24T11:53:13;37.20;99.90
2030;DHT22;1020;48.854;8.830;2022-08-24T11:55:46;38.20;99.90
2030;DHT22;1020;48.854;8.830;2022-08-24T11:58:21;38.70;99.90
2030;DHT22;1020;48.854;8.830;2022-08-24T12:00:54;38.10;99.90
2030;DHT22;1020;48.854;8.830;2022-08-24T12:03:41;38.60;99.90
2030;DHT22;1020;48.854;8.830;2022-08-24T12:06:26;39.10;99.90
2030;DHT22;1020;48.854;8.830;2022-08-24T12:09:03;39.10;99.90
2030;DHT22;1020;48.854;8.830;2022-08-24T12:11:38;39.80;99.90
2030;DHT22;1020;48.854;8.830;2022-08-24T12:14:12;39.00;99.90
2030;DHT22;1020;48.854;8.830;2022-08-24T12:16:47;38.20;99.90
2030;DHT22;1020;48.854;8.830;2022-08-24T12:19:19;38.50;99.90
2030;DHT22;1020;48.854;8.830;2022-08-24T12:21:49;39.20;99.90
2030;DHT22;1020;48.854;8.830;2022-08-24T12:24:25;39.70;99.90
2030;DHT22;1020;48.854;8.830;2022-08-24T12:26:55;39.40;99.90
2030;DHT22;1020;48.854;8.830;2022-08-24T12:29:28;39.00;99.90
2030;DHT22;1020;48.854;8.830;2022-08-24T12:31:58;38.30;99.90
2030;DHT22;1020;48.854;8.830;2022-08-24T12:34:42;36.90;99.90
2030;DHT22;1020;48.854;8.830;2022-08-24T12:37:15;38.10;99.90
2030;DHT22;1020;48.854;8.830;2022-08-24T12:39:48;38.60;99.90
2030;DHT22;1020;48.854;8.830;2022-08-24T12:42:23;37.90;99.90
2030;DHT22;1020;48.854;8.830;2022-08-24T12:44:54;37.50;99.90
2030;DHT22;1020;48.854;8.830;2022-08-24T12:47:27;37.00;99.90
2030;DHT22;1020;48.854;8.830;2022-08-24T12:50:02;37.80;99.90
2030;DHT22;1020;48.854;8.830;2022-08-24T13:01:22;39.30;99.90
2030;DHT22;1020;48.854;8.830;2022-08-24T13:04:08;39.80;99.90
2030;DHT22;1020;48.854;8.830;2022-08-24T13:06:40;38.40;99.90
2030;DHT22;1020;48.854;8.830;2022-08-24T13:09:13;37.70;99.90
2030;DHT22;1020;48.854;8.830;2022-08-24T13:11:40;37.20;99.90
2030;DHT22;1020;48.854;8.830;2022-08-24T13:14:17;37.50;99.90
2030;DHT22;1020;48.854;8.830;2022-08-24T13:16:48;35.90;99.90
2030;DHT22;1020;48.854;8.830;2022-08-24T13:19:31;36.80;99.90
2030;DHT22;1020;48.854;8.830;2022-08-24T13:21:59;37.10;99.90
2030;DHT22;1020;48.854;8.830;2022-08-24T13:24:52;37.10;99.90
2030;DHT22;1020;48.854;8.830;2022-08-24T13:27:44;36.80;99.90
2030;DHT22;1020;48.854;8.830;2022-08-24T13:30:21;37.50;99.90
2030;DHT22;1020;48.854;8.830;2022-08-24T13:32:56;38.40;99.90
2030;DHT22;1020;48.854;8.830;2022-08-24T13:38:40;37.50;99.90
2030;DHT22;1020;48.854;8.830;2022-08-24T13:41:16;36.80;99.90
2030;DHT22;1020;48.854;8.830;2022-08-24T13:43:51;36.90;99.90
2030;DHT22;1020;48.854;8.830;2022-08-24T13:46:24;37.30;99.90
2030;DHT22;1020;48.854;8.830;2022-08-24T13:48:59;36.80;99.90
2030;DHT22;1020;48.854;8.830;2022-08-24T13:51:39;37.30;99.90
2030;DHT22;1020;48.854;8.830;2022-08-24T13:54:17;38.00;99.90
2030;DHT22;1020;48.854;8.830;2022-08-24T13:57:05;38.20;99.90
2030;DHT22;1020;48.854;8.830;2022-08-24T13:59:56;37.90;99.90
2030;DHT22;1020;48.854;8.830;2022-08-24T14:02:30;36.90;99.90
2030;DHT22;1020;48.854;8.830;2022-08-24T14:05:05;36.50;99.90
2030;DHT22;1020;48.854;8.830;2022-08-24T14:07:48;36.60;99.90
2030;DHT22;1020;48.854;8.830;2022-08-24T14:10:37;36.80;99.90
2030;DHT22;1020;48.854;8.830;2022-08-24T14:13:19;36.20;99.90
2030;DHT22;1020;48.854;8.830;2022-08-24T14:15:56;35.80;99.90
2030;DHT22;1020;48.854;8.830;2022-08-24T14:18:47;35.50;99.90
2030;DHT22;1020;48.854;8.830;2022-08-24T14:21:17;34.50;99.90
2030;DHT22;1020;48.854;8.830;2022-08-24T14:23:52;34.60;99.90
2030;DHT22;1020;48.854;8.830;2022-08-24T14:27:02;35.00;99.90
2030;DHT22;1020;48.854;8.830;2022-08-24T14:29:35;35.00;99.90
2030;DHT22;1020;48.854;8.830;2022-08-24T14:32:38;34.80;99.90
2030;DHT22;1020;48.854;8.830;2022-08-24T14:35:29;34.70;99.90
2030;DHT22;1020;48.854;8.830;2022-08-24T14:38:13;34.90;99.90
2030;DHT22;1020;48.854;8.830;2022-08-24T14:40:54;34.80;99.90
2030;DHT22;1020;48.854;8.830;2022-08-24T14:43:27;35.00;99.90
2030;DHT22;1020;48.854;8.830;2022-08-24T14:46:02;34.40;99.90
2030;DHT22;1020;48.854;8.830;2022-08-24T14:48:36;34.40;99.90
2030;DHT22;1020;48.854;8.830;2022-08-24T14:51:11;33.90;99.90
2030;DHT22;1020;48.854;8.830;2022-08-24T14:53:59;33.80;99.90
2030;DHT22;1020;48.854;8.830;2022-08-24T14:56:41;33.50;99.90
2030;DHT22;1020;48.854;8.830;2022-08-24T14:59:13;33.20;99.90
2030;DHT22;1020;48.854;8.830;2022-08-24T15:01:44;33.50;99.90
2030;DHT22;1020;48.854;8.830;2022-08-24T15:04:35;33.90;99.90
2030;DHT22;1020;48.854;8.830;2022-08-24T15:07:23;33.70;99.90
2030;DHT22;1020;48.854;8.830;2022-08-24T15:09:51;33.60;99.90
2030;DHT22;1020;48.854;8.830;2022-08-24T15:12:31;33.60;99.90
2030;DHT22;1020;48.854;8.830;2022-08-24T15:15:07;33.50;99.90
2030;DHT22;1020;48.854;8.830;2022-08-24T15:17:41;33.30;99.90
2030;DHT22;1020;48.854;8.830;2022-08-24T15:20:16;33.50;99.90
2030;DHT22;1020;48.854;8.830;2022-08-24T15:22:47;33.10;99.90
2030;DHT22;1020;48.854;8.830;2022-08-24T15:25:21;32.30;99.90
2030;DHT22;1020;48.854;8.830;2022-08-24T15:27:56;32.30;99.90
2030;DHT22;1020;48.854;8.830;2022-08-24T15:30:25;32.60;99.90
2030;DHT22;1020;48.854;8.830;2022-08-24T15:33:03;32.60;99.90
2030;DHT22;1020;48.854;8.830;2022-08-24T15:35:33;32.40;99.90
2030;DHT22;1020;48.854;8.830;2022-08-24T15:38:19;32.80;99.90
2030;DHT22;1020;48.854;8.830;2022-08-24T15:40:49;33.10;99.90
2030;DHT22;1020;48.854;8.830;2022-08-24T15:43:18;33.30;99.90
2030;DHT22;1020;48.854;8.830;2022-08-24T15:45:47;32.90;99.90
2030;DHT22;1020;48.854;8.830;2022-08-24T15:48:18;32.30;99.90
2030;DHT22;1020;48.854;8.830;2022-08-24T15:50:47;31.90;99.90
2030;DHT22;1020;48.854;8.830;2022-08-24T15:53:32;32.00;99.90
2030;DHT22;1020;48.854;8.830;2022-08-24T15:56:24;31.90;99.90
2030;DHT22;1020;48.854;8.830;2022-08-24T15:58:53;31.80;99.90
2030;DHT22;1020;48.854;8.830;2022-08-24T16:01:23;31.50;99.90
2030;DHT22;1020;48.854;8.830;2022-08-24T16:04:09;31.90;99.90
2030;DHT22;1020;48.854;8.830;2022-08-24T16:06:39;32.10;99.90
2030;DHT22;1020;48.854;8.830;2022-08-24T16:09:12;31.80;99.90
2030;DHT22;1020;48.854;8.830;2022-08-24T16:11:41;31.20;99.90
2030;DHT22;1020;48.854;8.830;2022-08-24T16:14:14;31.20;99.90
2030;DHT22;1020;48.854;8.830;2022-08-24T16:16:49;31.30;99.90
2030;DHT22;1020;48.854;8.830;2022-08-24T16:19:23;31.20;99.90
2030;DHT22;1020;48.854;8.830;2022-08-24T16:21:54;31.30;99.90
2030;DHT22;1020;48.854;8.830;2022-08-24T16:24:27;31.20;99.90
2030;DHT22;1020;48.854;8.830;2022-08-24T16:26:58;31.00;99.90
2030;DHT22;1020;48.854;8.830;2022-08-24T16:29:52;31.10;99.90
2030;DHT22;1020;48.854;8.830;2022-08-24T16:32:23;31.10;99.90
2030;DHT22;1020;48.854;8.830;2022-08-24T16:34:52;31.00;99.90
2030;DHT22;1020;48.854;8.830;2022-08-24T16:37:21;30.80;99.90
2030;DHT22;1020;48.854;8.830;2022-08-24T16:39:48;30.80;99.90
2030;DHT22;1020;48.854;8.830;2022-08-24T16:42:21;30.70;99.90
2030;DHT22;1020;48.854;8.830;2022-08-24T16:44:48;30.80;99.90
2030;DHT22;1020;48.854;8.830;2022-08-24T16:47:17;30.70;99.90
2030;DHT22;1020;48.854;8.830;2022-08-24T16:49:45;30.40;99.90
2030;DHT22;1020;48.854;8.830;2022-08-24T16:52:12;29.90;99.90
2030;DHT22;1020;48.854;8.830;2022-08-24T16:54:39;29.30;99.90
2030;DHT22;1020;48.854;8.830;2022-08-24T16:57:11;29.30;99.90
2030;DHT22;1020;48.854;8.830;2022-08-24T16:59:40;29.50;99.90
2030;DHT22;1020;48.854;8.830;2022-08-24T17:02:07;29.50;99.90
2030;DHT22;1020;48.854;8.830;2022-08-24T17:04:35;29.50;99.90
2030;DHT22;1020;48.854;8.830;2022-08-24T17:07:02;29.20;99.90
2030;DHT22;1020;48.854;8.830;2022-08-24T17:09:35;29.20;99.90